Flight Track Log - Related Links

Times and Time Zones

All times are in EDT time to prevent confusion due to time zone crossing. See the ACA25 flight status page for this flight to view local times or setup timezone preferences in your user account.

Time Position Orientation Groundspeed Altitude Reporting Facility
EDT Latitude Longitude Course Direction KTS MPH feet Rate Location/Type
Fri 02:29:29 PM 49.1667 -123.2167 295° West 160 184 600  Level Vancouver Center
Fri 02:30:29 PM 49.1833 -123.2833 291° West 200 230 2,700 1,900 Climbing Vancouver Center
Fri 02:31:29 PM 49.1833 -123.3667 270° West 210 242 4,400 1,850 Climbing Vancouver Center
Fri 02:32:29 PM 49.2000 -123.5000 281° West 250 288 6,400 2,150 Climbing Vancouver Center
Fri 02:33:00 PM 49.2557 -123.6346 301° West  Level FlightAware Approximate
Fri 02:33:29 PM 49.2333 -123.6000 297° West 280 322 8,700  Level Vancouver Center
Fri 02:34:00 PM 49.3236 -123.7972 308° West  Level FlightAware Approximate
Fri 02:34:29 PM 49.2667 -123.7000 297° West 290 334 11,200  Level Vancouver Center
Fri 02:35:00 PM 49.3846 -123.9653 295° West  Level FlightAware Approximate
Fri 02:35:29 PM 49.3167 -123.8167 303° West 340 391 12,400  Level Vancouver Center
Fri 02:36:29 PM 49.3667 -123.9833 295° West 390 449 13,900 1,800 Climbing Vancouver Center
Fri 02:37:29 PM 49.4333 -124.1333 304° West 410 472 16,000 1,950 Climbing Vancouver Center
Fri 02:38:29 PM 49.5000 -124.2833 304° West 430 495 17,800 1,850 Climbing Vancouver Center
Fri 02:39:29 PM 49.5500 -124.4500 295° West 440 506 19,700 1,900 Climbing Vancouver Center
Fri 02:40:29 PM 49.6167 -124.6167 302° West 450 518 21,600 1,800 Climbing Vancouver Center
Fri 02:41:29 PM 49.6833 -124.8000 299° West 460 529 23,300 1,700 Climbing Vancouver Center
Fri 02:42:29 PM 49.7333 -124.9667 295° West 470 541 25,000 1,850 Climbing Vancouver Center
Fri 02:43:29 PM 49.8167 -125.1500 305° West 470 541 27,000 1,500 Climbing Vancouver Center
Fri 02:44:29 PM 49.8833 -125.3000 305° West 460 529 28,000 1,200 Climbing Vancouver Center
Fri 02:45:29 PM 49.9500 -125.4833 300° West 450 518 29,400 1,000 Climbing Vancouver Center
Fri 02:46:29 PM 50.0167 -125.6500 302° West 450 518 30,000 300 Climbing Vancouver Center
Fri 02:47:29 PM 50.0667 -125.8000 297° West 450 518 30,000  Level Vancouver Center
Fri 02:48:29 PM 50.1333 -125.9667 302° West 450 518 30,000  Level Vancouver Center
Fri 02:49:29 PM 50.2000 -126.1500 300° West 450 518 30,000  Level Vancouver Center
Fri 02:50:29 PM 50.2667 -126.3000 305° West 450 518 30,000  Level Vancouver Center
Fri 02:51:29 PM 50.3500 -126.5000 303° West 460 529 30,000  Level Vancouver Center
Fri 02:52:29 PM 50.3833 -126.6500 289° West 440 506 30,000  Level Vancouver Center
Fri 02:53:29 PM 50.4667 -126.8167 308° West 440 506 30,000  Level Vancouver Center
Fri 02:54:29 PM 50.5333 -126.9833 302° West 450 518 30,000  Level Vancouver Center
Fri 02:55:29 PM 50.6000 -127.1667 300° West 450 518 30,000  Level Vancouver Center
Fri 02:56:29 PM 50.6500 -127.3333 295° West 450 518 30,000  Level Vancouver Center
Fri 02:57:29 PM 50.7333 -127.5000 308° West 460 529 30,000  Level Vancouver Center
Fri 02:58:29 PM 50.8000 -127.6500 305° West 470 541 30,000  Level Vancouver Center
Fri 02:59:29 PM 50.8667 -127.8500 298° West 470 541 30,000  Level Vancouver Center
Fri 03:00:29 PM 50.9500 -127.9833 315° West 470 541 30,000  Level Vancouver Center
Fri 03:01:29 PM 51.0333 -128.1833 304° West 460 529 30,000  Level Vancouver Center
Fri 03:02:29 PM 51.0833 -128.3500 296° West 460 529 30,000  Level Vancouver Center
Fri 03:03:29 PM 51.1667 -128.5167 309° West 460 529 30,000  Level Vancouver Center
Fri 03:04:29 PM 51.2333 -128.6833 303° West 460 529 30,000  Level Vancouver Center
Fri 03:05:29 PM 51.3167 -128.8500 309° West 460 529 30,000  Level Vancouver Center
Fri 03:06:29 PM 51.3833 -129.0167 303° West 470 541 30,000  Level Vancouver Center
Fri 03:07:29 PM 51.4500 -129.1833 303° West 470 541 30,000  Level Vancouver Center
Fri 03:08:29 PM 51.5333 -129.3500 309° West 470 541 30,000  Level Vancouver Center
Fri 03:09:29 PM 51.6000 -129.5333 300° West 470 541 30,000  Level Vancouver Center
Fri 03:10:29 PM 51.6833 -129.7000 309° West 460 529 30,000  Level Vancouver Center
Fri 03:11:29 PM 51.7333 -129.8667 296° West 450 518 30,000  Level Vancouver Center
Fri 03:12:29 PM 51.8167 -130.0333 309° West 450 518 30,000  Level Vancouver Center
Fri 03:13:29 PM 51.8667 -130.2167 294° West 450 518 30,000  Level Vancouver Center
Fri 03:14:29 PM 51.9500 -130.3833 309° West 450 518 30,000  Level Vancouver Center
Fri 03:15:29 PM 52.0167 -130.5667 301° West 460 529 30,000  Level Vancouver Center
Fri 03:16:29 PM 52.1000 -130.7333 309° West 460 529 30,000  Level Vancouver Center
Fri 03:17:29 PM 52.1500 -130.9000 296° West 460 529 30,000  Level Vancouver Center
Fri 03:18:29 PM 52.2167 -131.0833 301° West 460 529 30,000  Level Vancouver Center
Fri 03:19:29 PM 52.3000 -131.2667 307° West 460 529 30,000  Level Vancouver Center
Fri 03:20:29 PM 52.3500 -131.4333 296° West 460 529 30,000  Level Vancouver Center
Fri 03:20:53 PM 52.3833 -131.4500 343° North 460 529 30,000  Level Anchorage Center
Fri 03:21:53 PM 52.4667 -131.6333 307° West 460 529 30,000 50 Level Anchorage Center
Fri 03:22:53 PM 52.5167 -131.8000 296° West 450 518 30,100 1,000 Climbing Anchorage Center
Fri 03:23:53 PM 52.5833 -131.9667 303° West 450 518 32,000 1,188 Climbing Anchorage Center
Fri 03:24:29 PM 52.6167 -132.1167 290° West 440 506 32,000  Level Vancouver Center
Fri 03:25:29 PM 52.6833 -132.2833 303° West 430 495 32,000  Level Vancouver Center
Fri 03:26:29 PM 52.7500 -132.4667 301° West 440 506 32,000  Level Vancouver Center
Fri 03:27:29 PM 52.8000 -132.6167 299° West 450 518 32,000  Level Vancouver Center
Fri 03:28:29 PM 52.8667 -132.8333 297° West 450 518 32,000  Level Vancouver Center
Fri 03:29:29 PM 52.9500 -132.9833 313° West 460 529 32,000  Level Vancouver Center
Fri 03:30:29 PM 53.0167 -133.2000 297° West 460 529 32,000  Level Vancouver Center
Fri 03:31:29 PM 53.0667 -133.3667 297° West 460 529 32,000  Level Vancouver Center
Fri 03:32:29 PM 53.1333 -133.5333 304° West 460 529 32,000  Level Vancouver Center
Fri 03:33:29 PM 53.2000 -133.7333 299° West 460 529 32,000  Level Vancouver Center
Fri 03:34:29 PM 53.2667 -133.9000 304° West 450 518 32,000  Level Vancouver Center
Fri 03:35:29 PM 53.3333 -134.1000 299° West 450 518 32,000  Level Vancouver Center
Fri 03:36:29 PM 53.4000 -134.2667 304° West 450 518 32,000  Level Vancouver Center
Fri 03:37:29 PM 53.4667 -134.4500 301° West 450 518 32,000  Level Vancouver Center
Fri 03:38:29 PM 53.5167 -134.6333 295° West 450 518 32,000  Level Vancouver Center
Fri 03:39:29 PM 53.5667 -134.8167 295° West 450 518 32,000  Level Vancouver Center
Fri 03:40:29 PM 53.6333 -135.0000 302° West 450 518 32,000  Level Vancouver Center
Fri 03:40:55 PM 53.6667 -135.0167 343° North 460 529 32,000  Level Anchorage Center
Fri 03:41:29 PM 53.7000 -135.1833 289° West 460 529 32,000  Level Vancouver Center
Fri 03:42:29 PM 53.7667 -135.3833 299° West 470 541 32,000  Level Vancouver Center
Fri 03:42:55 PM 53.8000 -135.4000 344° North 460 529 32,000  Level Anchorage Center
Fri 03:43:55 PM 53.8667 -135.6000 300° West 450 518 32,000  Level Anchorage Center
Fri 03:44:55 PM 53.9167 -135.7833 295° West 450 518 32,000  Level Anchorage Center
Fri 03:45:55 PM 53.9833 -135.9667 302° West 440 506 32,000  Level Anchorage Center
Fri 03:46:29 PM 54.0167 -136.1333 289° West 440 506 32,000  Level Vancouver Center
Fri 03:47:29 PM 54.0667 -136.3000 297° West 440 506 32,000  Level Vancouver Center
Fri 03:48:29 PM 54.1167 -136.5000 293° West 440 506 32,000  Level Vancouver Center
Fri 03:48:56 PM 54.1500 -136.4833 16° North 430 495 32,000  Level Anchorage Center
Fri 03:49:29 PM 54.1833 -136.6667 287° West 440 506 32,000  Level Vancouver Center
Fri 03:50:29 PM 54.2333 -136.8667 293° West 450 518 32,000  Level Vancouver Center
Fri 03:51:29 PM 54.3000 -137.0333 304° West 450 518 32,000  Level Vancouver Center
Fri 03:52:29 PM 54.3500 -137.2167 295° West 460 529 32,000  Level Vancouver Center
Fri 03:52:56 PM 54.3833 -137.2333 344° North 440 506 32,000  Level Anchorage Center
Fri 03:53:29 PM 54.4167 -137.4167 287° West 440 506 32,000  Level Vancouver Center
Fri 03:54:29 PM 54.4833 -137.6167 300° West 450 518 32,000  Level Vancouver Center
Fri 03:55:29 PM 54.5333 -137.8333 292° West 470 541 32,000  Level Vancouver Center
Fri 03:56:29 PM 54.6000 -138.0333 300° West 480 552 32,000  Level Vancouver Center
Fri 03:56:56 PM 54.6333 -138.0500 344° North 480 552 32,000  Level Anchorage Center
Fri 03:57:57 PM 54.6833 -138.2500 293° West 470 541 32,000  Level Anchorage Center
Fri 03:58:29 PM 54.7167 -138.4500 286° West 470 541 32,000  Level Vancouver Center
Fri 03:59:29 PM 54.7833 -138.6500 300° West 480 552 32,000  Level Vancouver Center
Fri 03:59:57 PM 54.8167 -138.6500 360° North 490 564 32,000  Level Anchorage Center
Fri 04:00:57 PM 54.8667 -138.8667 292° West 470 541 32,000  Level Anchorage Center
Fri 04:01:57 PM 54.9333 -139.0667 300° West 470 541 32,000  Level Anchorage Center
Fri 04:02:57 PM 54.9833 -139.2833 292° West 490 564 32,000  Level Anchorage Center
Fri 04:03:57 PM 55.0500 -139.5000 298° West 480 552 32,000  Level Anchorage Center
Fri 04:04:17 PM 55.0667 -139.6500 281° West 470 541 32,000  Level Vancouver Center
Fri 04:05:17 PM 55.1167 -139.8667 292° West 480 552 32,000  Level Vancouver Center
Fri 04:05:57 PM 55.1667 -139.9167 330° Northwest 470 541 32,000  Level Anchorage Center
Fri 04:06:58 PM 55.2167 -140.1167 294° West 470 541 32,000  Level Anchorage Center
Fri 04:07:58 PM 55.2833 -140.3333 298° West 480 552 32,000  Level Anchorage Center
Fri 04:09:58 PM 55.4000 -140.7667 296° West 480 552 32,000  Level Anchorage Center
Fri 04:10:58 PM 55.4500 -140.9833 292° West 480 552 32,000  Level Anchorage Center
Fri 04:11:58 PM 55.5000 -141.1500 298° West 490 564 32,000  Level Anchorage Center
Fri 04:12:58 PM 55.5667 -141.4167 294° West 490 564 32,000  Level Anchorage Center
Fri 04:13:58 PM 55.6167 -141.6167 294° West 480 552 32,000  Level Anchorage Center
Fri 04:14:59 PM 55.6833 -141.8500 297° West 480 552 32,000  Level Anchorage Center
Fri 04:15:59 PM 55.7333 -142.0833 291° West 490 564 32,000  Level Anchorage Center
Fri 04:16:58 PM 55.7833 -142.2833 294° West 480 552 32,000  Level Anchorage Center
Fri 04:17:59 PM 55.8333 -142.5000 292° West 470 541 32,000  Level Anchorage Center
Fri 04:18:59 PM 55.8833 -142.7167 292° West 480 552 32,000  Level Anchorage Center
Fri 04:19:59 PM 55.9333 -142.9333 292° West 490 564 32,000  Level Anchorage Center
Fri 04:20:59 PM 56.0000 -143.1667 297° West 480 552 32,000  Level Anchorage Center
Fri 04:21:59 PM 56.0500 -143.4000 291° West 490 564 32,000  Level Anchorage Center
Fri 04:22:59 PM 56.1000 -143.6333 291° West 480 552 32,000  Level Anchorage Center
Fri 04:23:59 PM 56.1500 -143.8500 293° West 480 552 32,000  Level Anchorage Center
Fri 04:24:59 PM 56.2167 -144.0833 297° West 490 564 32,000  Level Anchorage Center
Fri 04:26:00 PM 56.2667 -144.3167 291° West 490 564 32,000  Level Anchorage Center
Fri 04:26:59 PM 56.3167 -144.5500 291° West 490 564 32,000  Level Anchorage Center
Fri 04:28:00 PM 56.3667 -144.7667 293° West 490 564 32,000  Level Anchorage Center
Fri 04:29:00 PM 56.4167 -145.0000 291° West 480 552 32,000  Level Anchorage Center
Fri 04:30:00 PM 56.4667 -145.2333 291° West 490 564 32,000  Level Anchorage Center
Fri 04:31:00 PM 56.5167 -145.4667 291° West 490 564 32,000  Level Anchorage Center
Fri 04:32:00 PM 56.5667 -145.6833 293° West 490 564 32,000  Level Anchorage Center
Fri 04:33:00 PM 56.6000 -145.9333 284° West 490 564 32,000  Level Anchorage Center
Fri 04:34:00 PM 56.6500 -146.1500 293° West 480 552 32,000  Level Anchorage Center
Fri 04:35:00 PM 56.7000 -146.4000 290° West 500 575 32,000  Level Anchorage Center
Fri 04:36:00 PM 56.7500 -146.6333 291° West 490 564 32,000  Level Anchorage Center
Fri 04:37:01 PM 56.8000 -146.8500 293° West 470 541 32,000  Level Anchorage Center
Fri 04:38:01 PM 56.8500 -147.1000 290° West 500 575 32,000  Level Anchorage Center
Fri 04:39:01 PM 56.8833 -147.3500 284° West 500 575 32,000  Level Anchorage Center
Fri 04:40:01 PM 56.9333 -147.5833 292° West 490 564 32,000  Level Anchorage Center
Fri 04:41:01 PM 56.9833 -147.8167 292° West 480 552 32,000  Level Anchorage Center
Fri 04:42:01 PM 57.0333 -148.0500 292° West 490 564 32,000  Level Anchorage Center
Fri 04:43:01 PM 57.0667 -148.3000 284° West 490 564 32,000  Level Anchorage Center
Fri 04:44:01 PM 57.1167 -148.5333 292° West 490 564 32,000  Level Anchorage Center
Fri 04:45:01 PM 57.1667 -148.7667 292° West 490 564 32,000  Level Anchorage Center
Fri 04:46:02 PM 57.2167 -149.0167 290° West 500 575 32,000  Level Anchorage Center
Fri 04:47:02 PM 57.2667 -149.2500 292° West 490 564 32,000  Level Anchorage Center
Fri 04:48:02 PM 57.3167 -149.4833 292° West 500 575 32,000  Level Anchorage Center
Fri 04:49:02 PM 57.3667 -149.7333 290° West 500 575 32,000  Level Anchorage Center
Fri 04:50:02 PM 57.4167 -149.9667 292° West 490 564 32,000  Level Anchorage Center
Fri 04:51:02 PM 57.4667 -150.2000 292° West 480 552 32,000  Level Anchorage Center
Fri 04:52:02 PM 57.5167 -150.4500 291° West 480 552 32,000  Level Anchorage Center
Fri 04:53:02 PM 57.5667 -150.6833 292° West 490 564 32,000  Level Anchorage Center
Fri 04:54:02 PM 57.6167 -150.9333 291° West 490 564 32,000  Level Anchorage Center
Fri 04:55:03 PM 57.6500 -151.1667 285° West 490 564 32,000  Level Anchorage Center
Fri 04:56:02 PM 57.7000 -151.4000 292° West 490 564 32,000  Level Anchorage Center
Fri 04:57:03 PM 57.7500 -151.6500 291° West 490 564 32,000  Level Anchorage Center
Fri 04:58:03 PM 57.8000 -151.8833 292° West 480 552 32,000  Level Anchorage Center
Fri 04:59:03 PM 57.8333 -152.1167 285° West 490 564 32,000  Level Anchorage Center
Fri 05:00:03 PM 57.8833 -152.3667 291° West 490 564 32,000  Level Anchorage Center
Fri 05:01:03 PM 57.9333 -152.6167 291° West 490 564 32,000  Level Anchorage Center
Fri 05:02:03 PM 57.9667 -152.8500 285° West 480 552 32,000  Level Anchorage Center
Fri 05:03:03 PM 58.0167 -153.0833 292° West 480 552 32,000  Level Anchorage Center
Fri 05:04:03 PM 58.0500 -153.3333 284° West 480 552 32,000  Level Anchorage Center
Fri 05:05:03 PM 58.1000 -153.5667 292° West 480 552 32,000  Level Anchorage Center
Fri 05:06:04 PM 58.1333 -153.8167 284° West 470 541 32,000  Level Anchorage Center
Fri 05:07:03 PM 58.1667 -154.0500 285° West 480 552 32,000  Level Anchorage Center
Fri 05:08:04 PM 58.2167 -154.3000 291° West 470 541 32,000  Level Anchorage Center
Fri 05:09:04 PM 58.2500 -154.5167 286° West 480 552 32,000  Level Anchorage Center
Fri 05:10:04 PM 58.2833 -154.7667 284° West 480 552 32,000  Level Anchorage Center
Fri 05:11:04 PM 58.3167 -155.0167 284° West 470 541 32,000  Level Anchorage Center
Fri 05:12:04 PM 58.3500 -155.2667 284° West 470 541 32,000  Level Anchorage Center
Fri 05:13:04 PM 58.3833 -155.5000 285° West 470 541 32,000  Level Anchorage Center
Fri 05:14:05 PM 58.4167 -155.7333 285° West 460 529 32,000  Level Anchorage Center
Fri 05:15:04 PM 58.4500 -155.9833 284° West 470 541 32,000  Level Anchorage Center
Fri 05:16:05 PM 58.4833 -156.2333 284° West 460 529 32,000  Level Anchorage Center
Fri 05:17:05 PM 58.5167 -156.4667 285° West 470 541 32,000  Level Anchorage Center
Fri 05:19:05 PM 58.5833 -156.9667 285° West 450 518 32,000  Level Anchorage Center
Fri 05:20:05 PM 58.6167 -157.2167 284° West 460 529 32,000  Level Anchorage Center
Fri 05:21:05 PM 58.6333 -157.4500 278° West 450 518 32,000  Level Anchorage Center
Fri 05:22:05 PM 58.6667 -157.6833 285° West 460 529 32,000  Level Anchorage Center
Fri 05:23:05 PM 58.7000 -157.9167 285° West 450 518 32,000  Level Anchorage Center
Fri 05:24:06 PM 58.7167 -158.1667 277° West 450 518 32,000  Level Anchorage Center
Fri 05:25:06 PM 58.7500 -158.4000 285° West 440 506 32,000  Level Anchorage Center
Fri 05:26:05 PM 58.7833 -158.6333 286° West 440 506 32,000  Level Anchorage Center
Fri 05:27:06 PM 58.8000 -158.8667 278° West 440 506 32,000  Level Anchorage Center
Fri 05:28:06 PM 58.8333 -159.1000 286° West 440 506 32,000  Level Anchorage Center
Fri 05:29:06 PM 58.8500 -159.3333 278° West 440 506 32,000  Level Anchorage Center
Fri 05:30:06 PM 58.8833 -159.5833 285° West 450 518 32,000  Level Anchorage Center
Fri 05:31:06 PM 58.9000 -159.8167 278° West 440 506 32,000  Level Anchorage Center
Fri 05:32:07 PM 58.9167 -160.0500 278° West 440 506 32,000  Level Anchorage Center
Fri 05:33:06 PM 58.9500 -160.2833 286° West 440 506 32,000  Level Anchorage Center
Fri 05:34:06 PM 58.9667 -160.5167 278° West 440 506 32,000  Level Anchorage Center
Fri 05:35:06 PM 58.9833 -160.7500 278° West 440 506 32,000  Level Anchorage Center
Fri 05:36:07 PM 59.0167 -160.9833 286° West 440 506 32,000  Level Anchorage Center
Fri 05:37:07 PM 59.0333 -161.2333 277° West 440 506 32,000  Level Anchorage Center
Fri 05:38:07 PM 59.0500 -161.4667 278° West 440 506 32,000  Level Anchorage Center
Fri 05:39:07 PM 59.0833 -161.7000 286° West 440 506 32,000  Level Anchorage Center
Fri 05:40:07 PM 59.1000 -161.9333 278° West 450 518 32,000  Level Anchorage Center
Fri 05:41:07 PM 59.1167 -162.1833 278° West 460 529 32,000  Level Anchorage Center
Fri 05:42:07 PM 59.1333 -162.4167 278° West 440 506 32,000  Level Anchorage Center
Fri 05:43:07 PM 59.1500 -162.6500 278° West 440 506 32,000  Level Anchorage Center
Fri 05:44:08 PM 59.1667 -162.8833 278° West 440 506 32,000  Level Anchorage Center
Fri 05:45:08 PM 59.1833 -163.1167 278° West 440 506 32,000  Level Anchorage Center
Fri 05:46:08 PM 59.2000 -163.3667 278° West 440 506 32,000  Level Anchorage Center
Fri 05:47:08 PM 59.2167 -163.6000 278° West 440 506 32,000  Level Anchorage Center
Fri 05:48:08 PM 59.2333 -163.8333 278° West 440 506 32,000  Level Anchorage Center
Fri 05:49:08 PM 59.2500 -164.0833 278° West 440 506 32,000  Level Anchorage Center
Fri 05:50:08 PM 59.2667 -164.3167 278° West 440 506 32,000  Level Anchorage Center
Fri 05:51:08 PM 59.2833 -164.5500 278° West 440 506 32,000  Level Anchorage Center
Fri 05:52:08 PM 59.3000 -164.8000 278° West 440 506 32,000  Level Anchorage Center
Fri 05:53:09 PM 59.3167 -165.0333 278° West 440 506 32,000  Level Anchorage Center
Fri 05:54:08 PM 59.3333 -165.2667 278° West 430 495 32,000  Level Anchorage Center
Fri 05:55:09 PM 59.3333 -165.5000 270° West 420 483 32,000  Level Anchorage Center
Fri 05:56:16 PM 59.3500 -165.7833 277° West 430 495 32,000  Level Anchorage Center
Fri 05:57:09 PM 59.3667 -165.9500 281° West 410 472 32,000  Level Anchorage Center
Fri 05:58:09 PM 59.3833 -166.1833 278° West 420 483 32,000  Level Anchorage Center
Fri 05:59:16 PM 59.3833 -166.4333 270° West 410 472 32,000  Level Anchorage Center
Fri 06:00:16 PM 59.4000 -166.6500 279° West 410 472 32,000  Level Anchorage Center
Fri 06:01:16 PM 59.4000 -166.8833 270° West 410 472 32,000  Level Anchorage Center
Fri 06:02:16 PM 59.4167 -167.1000 279° West 410 472 32,000  Level Anchorage Center
Fri 06:03:17 PM 59.4333 -167.3167 279° West 400 460 32,000  Level Anchorage Center
Fri 06:04:17 PM 59.4333 -167.5500 270° West 400 460 32,000  Level Anchorage Center
Fri 06:05:17 PM 59.4500 -167.7667 279° West 400 460 32,000  Level Anchorage Center
Fri 06:06:17 PM 59.4500 -167.9833 270° West 400 460 32,000  Level Anchorage Center
Fri 06:07:17 PM 59.4500 -168.2000 270° West 380 437 32,000  Level Anchorage Center
Fri 06:08:17 PM 59.4667 -168.4167 279° West 390 449 32,000  Level Anchorage Center
Fri 06:09:17 PM 59.4667 -168.6500 270° West 400 460 32,000  Level Anchorage Center
Fri 06:10:17 PM 59.4833 -168.8500 279° West 380 437 32,000  Level Anchorage Center
Fri 06:11:17 PM 59.4833 -169.0667 270° West 390 449 32,000  Level Anchorage Center
Fri 06:12:18 PM 59.4833 -169.2833 270° West 390 449 32,000  Level Anchorage Center
Fri 06:13:17 PM 59.5000 -169.5167 278° West 400 460 32,000  Level Anchorage Center
Fri 06:14:17 PM 59.5000 -169.7333 270° West 400 460 32,000  Level Anchorage Center
Fri 06:15:17 PM 59.5000 -169.9500 270° West 400 460 32,000  Level Anchorage Center
Fri 06:16:18 PM 59.5167 -170.1667 279° West 390 449 32,000  Level Anchorage Center
Fri 06:17:18 PM 59.5167 -170.3833 270° West 390 449 32,000  Level Anchorage Center
Fri 06:18:18 PM 59.5167 -170.6000 270° West 400 460 32,000  Level Anchorage Center
Fri 06:19:18 PM 59.5167 -170.8167 270° West 390 449 32,000  Level Anchorage Center
Fri 06:20:18 PM 59.5167 -171.0500 270° West 400 460 32,000  Level Anchorage Center
Fri 06:21:18 PM 59.5167 -171.2500 270° West 400 460 32,000  Level Anchorage Center
Fri 06:22:18 PM 59.5333 -171.4500 279° West 370 426 32,000  Level Anchorage Center
Fri 06:23:18 PM 59.5333 -171.6667 270° West 390 449 32,000  Level Anchorage Center
Fri 06:24:18 PM 59.5333 -171.8833 270° West 380 437 32,000  Level Anchorage Center
Fri 06:25:18 PM 59.5000 -172.0833 252° West 370 426 32,000  Level Anchorage Center
Fri 06:26:18 PM 59.4500 -172.2833 244° Southwest 390 449 32,000  Level Anchorage Center
Fri 06:27:18 PM 59.4167 -172.4833 252° West 390 449 32,000  Level Anchorage Center
Fri 06:28:18 PM 59.3667 -172.6833 244° Southwest 390 449 32,000  Level Anchorage Center
Fri 06:29:18 PM 59.3333 -172.8833 252° West 380 437 32,000  Level Anchorage Center
Fri 06:30:19 PM 59.2833 -173.0667 242° Southwest 370 426 32,000  Level Anchorage Center
Fri 06:31:19 PM 59.2500 -173.2667 252° West 390 449 32,000  Level Anchorage Center
Fri 06:32:19 PM 59.2167 -173.4500 251° West 370 426 32,000  Level Anchorage Center
Fri 06:33:19 PM 59.1667 -173.6333 242° Southwest 380 437 32,000  Level Anchorage Center
Fri 06:34:19 PM 59.1333 -173.8333 252° West 370 426 32,000  Level Anchorage Center
Fri 06:35:19 PM 59.0833 -174.0167 242° Southwest 370 426 32,000  Level Anchorage Center
Fri 06:36:19 PM 59.0500 -174.2000 251° West 370 426 32,000 450 Level Anchorage Center
Fri 06:37:19 PM 59.0000 -174.3833 242° Southwest 390 449 32,900 750 Climbing Anchorage Center
Fri 06:38:19 PM 58.9667 -174.5833 252° West 390 449 33,500 550 Climbing Anchorage Center
Fri 06:39:19 PM 58.9167 -174.7833 244° Southwest 400 460 34,000 250 Climbing Anchorage Center
Fri 06:40:19 PM 58.8667 -175.0000 246° West 410 472 34,000  Level Anchorage Center
Fri 06:41:19 PM 58.8167 -175.1833 242° Southwest 400 460 34,000  Level Anchorage Center
Fri 06:42:19 PM 58.7833 -175.3833 252° West 410 472 34,000  Level Anchorage Center
Fri 06:43:21 PM 58.7333 -175.5833 244° Southwest 400 460 34,000  Level Anchorage Center
Fri 06:46:00 PM 58.6488 -175.9424 246° West  Level FlightAware Approximate
Fri 06:46:45 PM 58.5667 -176.2667 246° West 420 483 34,000  Level Anchorage Center
Fri 06:47:45 PM 58.5333 -176.4500 251° West 410 472 34,000  Level Anchorage Center
Fri 06:48:45 PM 58.4833 -176.6500 245° Southwest 400 460 34,000  Level Anchorage Center
Fri 06:49:45 PM 58.4333 -176.8333 243° Southwest 400 460 34,000  Level Anchorage Center
Fri 06:50:45 PM 58.3833 -177.0167 243° Southwest 390 449 34,000  Level Anchorage Center
Fri 06:51:45 PM 58.3333 -177.2000 243° Southwest 400 460 34,000  Level Anchorage Center
Fri 06:53:00 PM 58.2702 -177.4612 245° Southwest  Level FlightAware Approximate
Fri 07:00:00 PM 57.9073 -178.9066 245° Southwest  Level FlightAware Approximate
Fri 07:01:00 PM 57.8541 -179.1106 244° Southwest  Level FlightAware Approximate
Fri 07:02:00 PM 57.8006 -179.3141 244° Southwest  Level FlightAware Approximate
Fri 07:03:00 PM 57.7468 -179.5170 244° Southwest  Level FlightAware Approximate
Fri 07:04:00 PM 57.6926 -179.7192 243° Southwest  Level FlightAware Approximate
Fri 07:05:00 PM 57.6382 -179.9209 243° Southwest  Level FlightAware Approximate
Fri 07:06:00 PM 57.5823 -180.1209 242° Southwest  Level FlightAware Approximate
Fri 07:07:00 PM 57.5255 -180.3197 242° Southwest  Level FlightAware Approximate
Fri 07:08:00 PM 57.4684 -180.5179 242° Southwest  Level FlightAware Approximate
Fri 07:09:00 PM 57.4109 -180.7154 242° Southwest  Level FlightAware Approximate
Fri 07:10:00 PM 57.3532 -180.9123 242° Southwest  Level FlightAware Approximate
Fri 07:11:00 PM 57.2951 -181.1086 241° Southwest  Level FlightAware Approximate
Fri 07:12:00 PM 57.2368 -181.3043 241° Southwest  Level FlightAware Approximate
Fri 07:13:00 PM 57.1781 -181.4993 241° Southwest  Level FlightAware Approximate
Fri 07:14:00 PM 57.1191 -181.6937 241° Southwest  Level FlightAware Approximate
Fri 07:15:00 PM 57.0599 -181.8875 241° Southwest  Level FlightAware Approximate
Fri 07:16:00 PM 57.0003 -182.0807 241° Southwest  Level FlightAware Approximate
Fri 07:17:00 PM 56.9405 -182.2733 240° Southwest  Level FlightAware Approximate
Fri 07:18:00 PM 56.8803 -182.4653 240° Southwest  Level FlightAware Approximate
Fri 07:19:00 PM 56.8199 -182.6566 240° Southwest  Level FlightAware Approximate
Fri 07:20:00 PM 56.7593 177.1525 240° Southwest  Level FlightAware Approximate
Fri 07:21:00 PM 56.6984 176.9622 240° Southwest  Level FlightAware Approximate
Fri 07:22:00 PM 56.6373 176.7726 240° Southwest  Level FlightAware Approximate
Fri 07:23:00 PM 56.5759 176.5835 240° Southwest  Level FlightAware Approximate
Fri 07:24:00 PM 56.5142 176.3951 239° Southwest  Level FlightAware Approximate
Fri 07:25:00 PM 56.4522 176.2072 239° Southwest  Level FlightAware Approximate
Fri 07:26:00 PM 56.3899 176.0200 239° Southwest  Level FlightAware Approximate
Fri 07:27:00 PM 56.3273 175.8334 239° Southwest  Level FlightAware Approximate
Fri 07:28:00 PM 56.2645 175.6474 239° Southwest  Level FlightAware Approximate
Fri 07:29:00 PM 56.2014 175.4620 239° Southwest  Level FlightAware Approximate
Fri 07:30:00 PM 56.1380 175.2773 238° Southwest  Level FlightAware Approximate
Fri 07:31:00 PM 56.0743 175.0931 238° Southwest  Level FlightAware Approximate
Fri 07:32:00 PM 56.0103 174.9096 238° Southwest  Level FlightAware Approximate
Fri 07:33:00 PM 55.9461 174.7266 238° Southwest  Level FlightAware Approximate
Fri 07:34:00 PM 55.8816 174.5443 238° Southwest  Level FlightAware Approximate
Fri 07:34:17 PM 56.1000 175.2000 237° Southwest 400 460 34,000  Level Anchorage Center
Fri 07:35:00 PM 55.8169 174.3625 238° Southwest  Level FlightAware Approximate
Fri 07:35:17 PM 56.0500 175.0167 244° Southwest 430 495 34,000  Level Anchorage Center
Fri 07:36:00 PM 55.7519 174.1814 238° Southwest  Level FlightAware Approximate
Fri 07:36:19 PM 55.9833 174.8333 237° Southwest 420 483 34,000  Level Anchorage Center
Fri 07:37:00 PM 55.6866 174.0009 237° Southwest  Level FlightAware Approximate
Fri 07:37:17 PM 55.9333 174.6833 239° Southwest 420 483 34,000  Level Anchorage Center
Fri 07:38:00 PM 55.6210 173.8210 237° Southwest  Level FlightAware Approximate
Fri 07:38:17 PM 55.8667 174.5000 237° Southwest 420 483 34,000  Level Anchorage Center
Fri 07:39:00 PM 55.5552 173.6417 237° Southwest  Level FlightAware Approximate
Fri 07:39:18 PM 55.8167 174.3333 242° Southwest 420 483 34,000  Level Anchorage Center
Fri 07:40:17 PM 55.7500 174.1500 237° Southwest 420 483 34,000  Level Anchorage Center
Fri 07:41:18 PM 55.6667 173.9667 231° Southwest 420 483 34,000  Level Anchorage Center
Fri 07:42:18 PM 55.6167 173.8167 239° Southwest 420 483 34,000  Level Anchorage Center
Fri 07:43:18 PM 55.5500 173.6167 240° Southwest 420 483 34,000  Level Anchorage Center
Fri 07:44:18 PM 55.5000 173.4667 240° Southwest 420 483 34,000  Level Anchorage Center
Fri 07:45:18 PM 55.4167 173.2833 231° Southwest 430 495 34,000  Level Anchorage Center
Fri 07:46:18 PM 55.3667 173.1333 240° Southwest 420 483 34,000  Level Anchorage Center
Fri 07:47:18 PM 55.3000 172.9500 237° Southwest 420 483 34,000  Level Anchorage Center
Fri 07:48:18 PM 55.2333 172.8000 232° Southwest 430 495 34,000  Level Anchorage Center
Fri 07:49:18 PM 55.1667 172.6000 240° Southwest 430 495 34,000  Level Anchorage Center
Fri 07:50:18 PM 55.1000 172.4167 238° Southwest 420 483 34,000  Level Anchorage Center
Fri 07:51:18 PM 55.0333 172.2667 232° Southwest 430 495 34,000  Level Anchorage Center
Fri 07:52:18 PM 54.9667 172.0833 238° Southwest 430 495 34,000  Level Anchorage Center
Fri 07:53:18 PM 54.9000 171.9333 232° Southwest 430 495 34,000  Level Anchorage Center
Fri 07:54:18 PM 54.8333 171.7500 238° Southwest 450 518 34,000  Level Anchorage Center
Fri 07:55:18 PM 54.7667 171.6000 232° Southwest 440 506 34,000  Level Anchorage Center
Fri 07:56:18 PM 54.7000 171.4167 238° Southwest 430 495 34,000  Level Anchorage Center
Fri 07:57:18 PM 54.6333 171.2667 233° Southwest 440 506 34,000  Level Anchorage Center
Fri 07:58:18 PM 54.5500 171.0833 232° Southwest 440 506 34,000  Level Anchorage Center
Fri 07:59:19 PM 54.4833 170.9000 238° Southwest 430 495 34,000  Level Anchorage Center
Fri 08:00:18 PM 54.4167 170.7667 229° Southwest 440 506 34,000  Level Anchorage Center
Fri 08:01:19 PM 54.3333 170.5667 235° Southwest 460 529 34,000  Level Anchorage Center
Fri 08:02:19 PM 54.2667 170.4333 229° Southwest 430 495 34,000  Level Anchorage Center
Fri 08:03:18 PM 54.1833 170.2500 232° Southwest 440 506 34,000  Level Anchorage Center
Fri 08:04:19 PM 54.1333 170.1000 240° Southwest 440 506 34,000  Level Anchorage Center
Fri 08:05:19 PM 54.0500 169.9167 232° Southwest 430 495 34,000  Level Anchorage Center
Fri 08:06:19 PM 53.9667 169.7333 232° Southwest 440 506 34,000  Level Anchorage Center
Fri 08:07:19 PM 53.9000 169.5833 233° Southwest 440 506 34,000  Level Anchorage Center
Fri 08:08:19 PM 53.8167 169.4167 230° Southwest 450 518 34,000  Level Anchorage Center
Fri 08:09:19 PM 53.7500 169.2667 233° Southwest 440 506 34,000  Level Anchorage Center
Fri 08:10:19 PM 53.6833 169.0833 239° Southwest 460 529 34,000  Level Anchorage Center
Fri 08:11:19 PM 53.6333 168.9167 243° Southwest 460 529 34,000  Level Anchorage Center
Fri 08:12:19 PM 53.5667 168.7167 241° Southwest 430 495 34,000  Level Anchorage Center
Fri 08:15:00 PM 53.4656 168.4226 240° Southwest  Level FlightAware Approximate
Fri 08:22:00 PM 53.0404 167.2120 240° Southwest  Level FlightAware Approximate
Fri 08:23:00 PM 52.9787 167.0410 239° Southwest  Level FlightAware Approximate
Fri 08:24:00 PM 52.9168 166.8704 239° Southwest  Level FlightAware Approximate
Fri 08:25:00 PM 52.8546 166.7004 239° Southwest  Level FlightAware Approximate
Fri 08:26:00 PM 52.7922 166.5308 239° Southwest  Level FlightAware Approximate
Fri 08:27:00 PM 52.7295 166.3617 239° Southwest  Level FlightAware Approximate
Fri 08:28:00 PM 52.6667 166.1931 238° Southwest  Level FlightAware Approximate
Fri 08:29:00 PM 52.6035 166.0250 238° Southwest  Level FlightAware Approximate
Fri 08:30:00 PM 52.5401 165.8575 238° Southwest  Level FlightAware Approximate
Fri 08:31:00 PM 52.4760 165.6908 238° Southwest  Level FlightAware Approximate
Fri 08:32:00 PM 52.4118 165.5246 238° Southwest  Level FlightAware Approximate
Fri 08:33:00 PM 52.3472 165.3589 238° Southwest  Level FlightAware Approximate
Fri 08:34:00 PM 52.2825 165.1936 237° Southwest  Level FlightAware Approximate
Fri 08:35:00 PM 52.2175 165.0289 237° Southwest  Level FlightAware Approximate
Fri 08:36:00 PM 52.1523 164.8646 237° Southwest  Level FlightAware Approximate
Fri 08:37:00 PM 52.0869 164.7009 237° Southwest  Level FlightAware Approximate
Fri 08:38:00 PM 52.0212 164.5376 237° Southwest  Level FlightAware Approximate
Fri 08:39:00 PM 51.9553 164.3747 237° Southwest  Level FlightAware Approximate
Fri 08:40:00 PM 51.8892 164.2124 237° Southwest  Level FlightAware Approximate
Fri 08:41:00 PM 51.8229 164.0505 237° Southwest  Level FlightAware Approximate
Fri 08:42:00 PM 51.7563 163.8891 236° Southwest  Level FlightAware Approximate
Fri 08:43:00 PM 51.6896 163.7282 236° Southwest  Level FlightAware Approximate
Fri 08:44:00 PM 51.6225 163.5679 236° Southwest  Level FlightAware Approximate
Fri 08:45:00 PM 51.5549 163.4083 236° Southwest  Level FlightAware Approximate
Fri 08:46:00 PM 51.4872 163.2492 236° Southwest  Level FlightAware Approximate
Fri 08:47:00 PM 51.4192 163.0905 236° Southwest  Level FlightAware Approximate
Fri 08:48:00 PM 51.3511 162.9323 235° Southwest  Level FlightAware Approximate
Fri 08:49:00 PM 51.2827 162.7746 235° Southwest  Level FlightAware Approximate
Fri 08:50:00 PM 51.2141 162.6173 235° Southwest  Level FlightAware Approximate
Fri 08:51:00 PM 51.1453 162.4605 235° Southwest  Level FlightAware Approximate
Fri 08:52:00 PM 51.0763 162.3042 235° Southwest  Level FlightAware Approximate
Fri 08:53:00 PM 51.0071 162.1483 235° Southwest  Level FlightAware Approximate
Fri 08:54:00 PM 50.9376 161.9929 235° Southwest  Level FlightAware Approximate
Fri 08:55:00 PM 50.8688 161.8371 235° Southwest  Level FlightAware Approximate
Fri 08:56:00 PM 50.7999 161.6816 235° Southwest  Level FlightAware Approximate
Fri 08:57:00 PM 50.7307 161.5266 235° Southwest  Level FlightAware Approximate
Fri 08:58:00 PM 50.6614 161.3721 235° Southwest  Level FlightAware Approximate
Fri 08:59:00 PM 50.5918 161.2180 235° Southwest  Level FlightAware Approximate
Fri 09:00:00 PM 50.5220 161.0643 235° Southwest  Level FlightAware Approximate
Fri 09:01:00 PM 50.4520 160.9112 234° Southwest  Level FlightAware Approximate
Fri 09:02:00 PM 50.3819 160.7584 234° Southwest  Level FlightAware Approximate
Fri 09:03:00 PM 50.3115 160.6062 234° Southwest  Level FlightAware Approximate
Fri 09:04:00 PM 50.2409 160.4543 234° Southwest  Level FlightAware Approximate
Fri 09:05:00 PM 50.1702 160.3029 234° Southwest  Level FlightAware Approximate
Fri 09:06:00 PM 50.0995 160.1521 234° Southwest  Level FlightAware Approximate
Fri 09:07:00 PM 50.0287 160.0018 234° Southwest  Level FlightAware Approximate
Fri 09:08:00 PM 49.9576 159.8519 234° Southwest  Level FlightAware Approximate
Fri 09:09:00 PM 49.8863 159.7025 234° Southwest  Level FlightAware Approximate
Fri 09:10:00 PM 49.8149 159.5535 233° Southwest  Level FlightAware Approximate
Fri 09:11:00 PM 49.7433 159.4049 233° Southwest  Level FlightAware Approximate
Fri 09:12:00 PM 49.6713 159.2740 233° Southwest  Level FlightAware Approximate
Fri 09:13:00 PM 49.5996 159.1260 233° Southwest  Level FlightAware Approximate
Fri 09:14:00 PM 49.5276 158.9785 233° Southwest  Level FlightAware Approximate
Fri 09:15:00 PM 49.4555 158.8313 233° Southwest  Level FlightAware Approximate
Fri 09:16:00 PM 49.3832 158.6847 233° Southwest  Level FlightAware Approximate
Fri 09:17:00 PM 49.3107 158.5384 233° Southwest  Level FlightAware Approximate
Fri 09:18:00 PM 49.2380 158.3926 233° Southwest  Level FlightAware Approximate
Fri 09:19:00 PM 49.1637 158.2489 232° Southwest  Level FlightAware Approximate
Fri 09:20:00 PM 49.0891 158.1058 232° Southwest  Level FlightAware Approximate
Fri 09:21:00 PM 49.0144 157.9631 231° Southwest  Level FlightAware Approximate
Fri 09:22:00 PM 48.9394 157.8208 231° Southwest  Level FlightAware Approximate
Fri 09:23:00 PM 48.8643 157.6790 231° Southwest  Level FlightAware Approximate
Fri 09:24:00 PM 48.7891 157.5375 231° Southwest  Level FlightAware Approximate
Fri 09:25:00 PM 48.7139 157.3962 232° Southwest  Level FlightAware Approximate
Fri 09:26:00 PM 48.6395 157.2542 232° Southwest  Level FlightAware Approximate
Fri 09:27:00 PM 48.5648 157.1126 231° Southwest  Level FlightAware Approximate
Fri 09:28:00 PM 48.4900 156.9715 231° Southwest  Level FlightAware Approximate
Fri 09:29:00 PM 48.4150 156.8307 231° Southwest  Level FlightAware Approximate
Fri 09:30:00 PM 48.3399 156.6904 231° Southwest  Level FlightAware Approximate
Fri 09:31:00 PM 48.2646 156.5505 231° Southwest  Level FlightAware Approximate
Fri 09:32:00 PM 48.1891 156.4110 231° Southwest  Level FlightAware Approximate
Fri 09:33:00 PM 48.1134 156.2719 231° Southwest  Level FlightAware Approximate
Fri 09:34:00 PM 48.0376 156.1332 231° Southwest  Level FlightAware Approximate
Fri 09:35:00 PM 47.9616 155.9949 231° Southwest  Level FlightAware Approximate
Fri 09:36:00 PM 47.8854 155.8571 231° Southwest  Level FlightAware Approximate
Fri 09:37:00 PM 47.8091 155.7196 230° Southwest  Level FlightAware Approximate
Fri 09:38:00 PM 47.7326 155.5826 230° Southwest  Level FlightAware Approximate
Fri 09:39:00 PM 47.6560 155.4459 230° Southwest  Level FlightAware Approximate
Fri 09:40:00 PM 47.5792 155.3097 230° Southwest  Level FlightAware Approximate
Fri 09:41:00 PM 47.5022 155.1738 230° Southwest  Level FlightAware Approximate
Fri 09:42:00 PM 47.4251 155.0384 230° Southwest  Level FlightAware Approximate
Fri 09:43:00 PM 47.3478 154.9033 230° Southwest  Level FlightAware Approximate
Fri 09:44:00 PM 47.2703 154.7687 230° Southwest  Level FlightAware Approximate
Fri 09:45:00 PM 47.1927 154.6344 230° Southwest  Level FlightAware Approximate
Fri 09:46:00 PM 47.1150 154.5005 230° Southwest  Level FlightAware Approximate
Fri 09:47:00 PM 47.0370 154.3671 229° Southwest  Level FlightAware Approximate
Fri 09:48:00 PM 46.9590 154.2340 229° Southwest  Level FlightAware Approximate
Fri 09:49:00 PM 46.8807 154.1013 229° Southwest  Level FlightAware Approximate
Fri 09:50:00 PM 46.8024 153.9689 229° Southwest  Level FlightAware Approximate
Fri 09:51:00 PM 46.7238 153.8370 229° Southwest  Level FlightAware Approximate
Fri 09:52:00 PM 46.6452 153.7055 229° Southwest  Level FlightAware Approximate
Fri 09:53:00 PM 46.5663 153.5743 229° Southwest  Level FlightAware Approximate
Fri 09:54:00 PM 46.4874 153.4435 229° Southwest  Level FlightAware Approximate
Fri 09:55:00 PM 46.4082 153.3131 229° Southwest  Level FlightAware Approximate
Fri 09:56:00 PM 46.3289 153.1831 229° Southwest  Level FlightAware Approximate
Fri 09:57:00 PM 46.2495 153.0535 228° Southwest  Level FlightAware Approximate
Fri 09:58:00 PM 46.1695 152.9247 228° Southwest  Level FlightAware Approximate
Fri 09:59:00 PM 46.0891 152.7968 228° Southwest  Level FlightAware Approximate
Fri 10:00:00 PM 46.0085 152.6692 228° Southwest  Level FlightAware Approximate
Fri 10:01:00 PM 45.9278 152.5419 228° Southwest  Level FlightAware Approximate
Fri 10:02:00 PM 45.8469 152.4151 228° Southwest  Level FlightAware Approximate
Fri 10:03:00 PM 45.7659 152.2886 227° Southwest  Level FlightAware Approximate
Fri 10:04:00 PM 45.6848 152.1625 227° Southwest  Level FlightAware Approximate
Fri 10:05:00 PM 45.6035 152.0367 227° Southwest  Level FlightAware Approximate
Fri 10:06:00 PM 45.5221 151.9114 227° Southwest  Level FlightAware Approximate
Fri 10:07:00 PM 45.4406 151.7863 227° Southwest  Level FlightAware Approximate
Fri 10:08:00 PM 45.3589 151.6617 227° Southwest  Level FlightAware Approximate
Fri 10:09:00 PM 45.2771 151.5374 227° Southwest  Level FlightAware Approximate
Fri 10:10:00 PM 45.1951 151.4134 227° Southwest  Level FlightAware Approximate
Fri 10:11:00 PM 45.1130 151.2898 227° Southwest  Level FlightAware Approximate
Fri 10:12:00 PM 45.0308 151.1666 227° Southwest  Level FlightAware Approximate
Fri 10:13:00 PM 44.9484 151.0437 227° Southwest  Level FlightAware Approximate
Fri 10:14:00 PM 44.8660 150.9212 226° Southwest  Level FlightAware Approximate
Fri 10:15:00 PM 44.7833 150.7990 226° Southwest  Level FlightAware Approximate
Fri 10:16:00 PM 44.7006 150.6772 226° Southwest  Level FlightAware Approximate
Fri 10:17:00 PM 44.6177 150.5557 226° Southwest  Level FlightAware Approximate
Fri 10:18:00 PM 44.5347 150.4346 226° Southwest  Level FlightAware Approximate
Fri 10:19:00 PM 44.4516 150.3138 226° Southwest  Level FlightAware Approximate
Fri 10:20:00 PM 44.3683 150.1933 226° Southwest  Level FlightAware Approximate
Fri 10:21:00 PM 44.2850 150.0733 226° Southwest  Level FlightAware Approximate
Fri 10:22:00 PM 44.2014 149.9535 226° Southwest  Level FlightAware Approximate
Fri 10:23:00 PM 44.1178 149.8341 226° Southwest  Level FlightAware Approximate
Fri 10:24:00 PM 44.0340 149.7150 226° Southwest  Level FlightAware Approximate
Fri 10:25:00 PM 43.9502 149.5962 226° Southwest  Level FlightAware Approximate
Fri 10:26:00 PM 43.8662 149.4778 225° Southwest  Level FlightAware Approximate
Fri 10:27:00 PM 43.7820 149.3598 225° Southwest  Level FlightAware Approximate
Fri 10:28:00 PM 43.6978 149.2420 225° Southwest  Level FlightAware Approximate
Fri 10:29:00 PM 43.6134 149.1246 225° Southwest  Level FlightAware Approximate
Fri 10:30:00 PM 43.5289 149.0075 225° Southwest  Level FlightAware Approximate
Fri 10:31:00 PM 43.4443 148.8907 225° Southwest  Level FlightAware Approximate
Fri 10:32:00 PM 43.3596 148.7743 225° Southwest  Level FlightAware Approximate
Fri 10:33:00 PM 43.2747 148.6582 225° Southwest  Level FlightAware Approximate
Fri 10:34:00 PM 43.1898 148.5424 225° Southwest  Level FlightAware Approximate
Fri 10:35:00 PM 43.1047 148.4270 225° Southwest  Level FlightAware Approximate
Fri 10:36:00 PM 43.0195 148.3118 225° Southwest  Level FlightAware Approximate
Fri 10:37:00 PM 42.9342 148.1970 225° Southwest  Level FlightAware Approximate
Fri 10:38:00 PM 42.8488 148.0825 225° Southwest  Level FlightAware Approximate
Fri 10:39:00 PM 42.7632 147.9683 224° Southwest  Level FlightAware Approximate
Fri 10:40:00 PM 42.6776 147.8544 224° Southwest  Level FlightAware Approximate
Fri 10:41:00 PM 42.5918 147.7409 224° Southwest  Level FlightAware Approximate
Fri 10:42:00 PM 42.5060 147.6276 224° Southwest  Level FlightAware Approximate
Fri 10:43:00 PM 42.4194 147.5140 224° Southwest  Level FlightAware Approximate
Fri 10:44:00 PM 42.3333 147.3999 225° Southwest  Level FlightAware Approximate
Fri 10:45:00 PM 42.2474 147.2857 225° Southwest  Level FlightAware Approximate
Fri 10:46:00 PM 42.1614 147.1718 224° Southwest  Level FlightAware Approximate
Fri 10:47:00 PM 42.0753 147.0581 224° Southwest  Level FlightAware Approximate
Fri 10:48:00 PM 41.9891 146.9448 224° Southwest  Level FlightAware Approximate
Fri 10:49:00 PM 41.9027 146.8320 224° Southwest  Level FlightAware Approximate
Fri 10:50:00 PM 41.8156 146.7202 224° Southwest  Level FlightAware Approximate
Fri 10:51:00 PM 41.7283 146.6087 224° Southwest  Level FlightAware Approximate
Fri 10:52:00 PM 41.6410 146.4976 224° Southwest  Level FlightAware Approximate
Fri 10:53:00 PM 41.5536 146.3867 224° Southwest  Level FlightAware Approximate
Fri 10:54:00 PM 41.4660 146.2762 223° Southwest  Level FlightAware Approximate
Fri 10:55:00 PM 41.3784 146.1659 223° Southwest  Level FlightAware Approximate
Fri 10:56:00 PM 41.2906 146.0560 223° Southwest  Level FlightAware Approximate
Fri 10:57:00 PM 41.2028 145.9463 223° Southwest  Level FlightAware Approximate
Fri 10:58:00 PM 41.1148 145.8369 223° Southwest  Level FlightAware Approximate
Fri 10:59:00 PM 41.0268 145.7278 223° Southwest  Level FlightAware Approximate
Fri 11:00:00 PM 40.9386 145.6190 223° Southwest  Level FlightAware Approximate
Fri 11:01:00 PM 40.8504 145.5105 223° Southwest  Level FlightAware Approximate
Fri 11:02:00 PM 40.7620 145.4023 223° Southwest  Level FlightAware Approximate
Fri 11:03:00 PM 40.6735 145.2944 223° Southwest  Level FlightAware Approximate
Fri 11:04:00 PM 40.5850 145.1868 223° Southwest  Level FlightAware Approximate
Fri 11:05:00 PM 40.4963 145.0794 223° Southwest  Level FlightAware Approximate
Fri 11:06:00 PM 40.4101 144.9695 238° Southwest  Level FlightAware Approximate
Fri 11:07:00 PM 40.3460 144.8356 238° Southwest  Level FlightAware Approximate
Fri 11:08:00 PM 40.2818 144.7018 238° Southwest  Level FlightAware Approximate
Fri 11:09:00 PM 40.2175 144.5684 238° Southwest  Level FlightAware Approximate
Fri 11:10:00 PM 40.1530 144.4352 238° Southwest  Level FlightAware Approximate
Fri 11:11:00 PM 40.0883 144.3022 238° Southwest  Level FlightAware Approximate
Fri 11:12:00 PM 40.0235 144.1695 238° Southwest  Level FlightAware Approximate
Fri 11:13:00 PM 39.9585 144.0371 237° Southwest  Level FlightAware Approximate
Fri 11:14:00 PM 39.8934 143.9049 237° Southwest  Level FlightAware Approximate
Fri 11:15:00 PM 39.8283 143.7728 238° Southwest  Level FlightAware Approximate
Fri 11:16:00 PM 39.7646 143.6397 238° Southwest  Level FlightAware Approximate
Fri 11:17:00 PM 39.7008 143.5068 238° Southwest  Level FlightAware Approximate
Fri 11:18:00 PM 39.6368 143.3742 238° Southwest  Level FlightAware Approximate
Fri 11:19:00 PM 39.5727 143.2418 238° Southwest  Level FlightAware Approximate
Fri 11:20:00 PM 39.5084 143.1096 238° Southwest  Level FlightAware Approximate
Fri 11:21:00 PM 39.4440 142.9777 238° Southwest  Level FlightAware Approximate
Fri 11:22:00 PM 39.3794 142.8461 238° Southwest  Level FlightAware Approximate
Fri 11:23:00 PM 39.3147 142.7146 238° Southwest  Level FlightAware Approximate
Fri 11:24:00 PM 39.2498 142.5835 237° Southwest  Level FlightAware Approximate
Fri 11:25:00 PM 39.1784 142.4587 230° Southwest  Level FlightAware Approximate
Fri 11:26:00 PM 39.1001 142.3406 230° Southwest  Level FlightAware Approximate
Fri 11:27:00 PM 39.0217 142.2227 229° Southwest  Level FlightAware Approximate
Fri 11:28:00 PM 38.9432 142.1051 229° Southwest  Level FlightAware Approximate
Fri 11:29:00 PM 38.8646 141.9878 229° Southwest  Level FlightAware Approximate
Fri 11:30:00 PM 38.7859 141.8707 229° Southwest  Level FlightAware Approximate
Fri 11:31:00 PM 38.7070 141.7539 229° Southwest  Level FlightAware Approximate
Fri 11:32:00 PM 38.6281 141.6374 229° Southwest  Level FlightAware Approximate
Fri 11:33:00 PM 38.5490 141.5211 229° Southwest  Level FlightAware Approximate
Fri 11:34:00 PM 38.4698 141.4050 229° Southwest  Level FlightAware Approximate
Fri 11:35:00 PM 38.3905 141.2892 229° Southwest  Level FlightAware Approximate
Fri 11:36:00 PM 38.3111 141.1737 229° Southwest  Level FlightAware Approximate
Fri 11:37:00 PM 38.2315 141.0584 229° Southwest  Level FlightAware Approximate
Fri 11:38:00 PM 38.1519 140.9434 229° Southwest  Level FlightAware Approximate
Fri 11:39:00 PM 38.1212 140.8002 262° West  Level FlightAware Approximate
Fri 11:40:00 PM 38.1051 140.6484 262° West  Level FlightAware Approximate
Fri 11:41:00 PM 38.0886 140.4967 262° West  Level FlightAware Approximate
Fri 11:42:00 PM 38.0729 140.3450 263° West  Level FlightAware Approximate
Fri 11:43:00 PM 38.0584 140.1931 263° West  Level FlightAware Approximate
Fri 11:44:00 PM 38.0443 140.0411 263° West  Level FlightAware Approximate
Fri 11:45:00 PM 38.0300 139.8892 263° West  Level FlightAware Approximate
Fri 11:46:00 PM 38.0154 139.7374 263° West  Level FlightAware Approximate
Fri 11:47:00 PM 38.0002 139.5857 263° West  Level FlightAware Approximate
Fri 11:48:00 PM 37.9847 139.4341 263° West  Level FlightAware Approximate
Fri 11:49:00 PM 37.9691 139.2825 263° West  Level FlightAware Approximate
Fri 11:50:00 PM 37.9533 139.1310 262° West  Level FlightAware Approximate
Fri 11:51:00 PM 37.8936 139.0018 234° Southwest  Level FlightAware Approximate
Fri 11:52:00 PM 37.8226 138.8785 234° Southwest  Level FlightAware Approximate
Fri 11:53:00 PM 37.7514 138.7555 234° Southwest  Level FlightAware Approximate
Fri 11:54:00 PM 37.6801 138.6327 234° Southwest  Level FlightAware Approximate
Fri 11:55:00 PM 37.6087 138.5101 234° Southwest  Level FlightAware Approximate
Fri 11:56:00 PM 37.5383 138.3868 235° Southwest  Level FlightAware Approximate
Fri 11:57:00 PM 37.4685 138.2630 235° Southwest  Level FlightAware Approximate
Fri 11:58:00 PM 37.3984 138.1396 235° Southwest  Level FlightAware Approximate
Fri 11:59:00 PM 37.3283 138.0163 234° Southwest  Level FlightAware Approximate
Sat 12:00:00 AM 37.2567 137.8945 233° Southwest  Level FlightAware Approximate
Sat 12:01:00 AM 37.1862 137.7718 234° Southwest  Level FlightAware Approximate
Sat 12:02:00 AM 37.1132 137.6516 233° Southwest  Level FlightAware Approximate
Sat 12:03:00 AM 37.0399 137.5317 233° Southwest  Level FlightAware Approximate
Sat 12:04:00 AM 36.9699 137.4090 237° Southwest  Level FlightAware Approximate
Sat 12:05:00 AM 36.9039 137.2829 237° Southwest  Level FlightAware Approximate
Sat 12:06:00 AM 36.8378 137.1569 237° Southwest  Level FlightAware Approximate
Sat 12:07:00 AM 36.7667 137.0356 232° Southwest  Level FlightAware Approximate
Sat 12:08:00 AM 36.6931 136.9166 232° Southwest  Level FlightAware Approximate
Sat 12:09:00 AM 36.6194 136.7978 232° Southwest  Level FlightAware Approximate
Sat 12:10:00 AM 36.5475 136.6774 234° Southwest  Level FlightAware Approximate
Sat 12:11:00 AM 36.4762 136.5566 234° Southwest  Level FlightAware Approximate
Sat 12:12:00 AM 36.4047 136.4360 234° Southwest  Level FlightAware Approximate
Sat 12:13:00 AM 36.3591 136.2995 253° West  Level FlightAware Approximate
Sat 12:14:00 AM 36.3243 136.1562 253° West  Level FlightAware Approximate
Sat 12:15:00 AM 36.2894 136.0132 253° West  Level FlightAware Approximate
Sat 12:16:00 AM 36.2543 135.8702 253° West  Level FlightAware Approximate
Sat 12:17:00 AM 36.2191 135.7273 253° West  Level FlightAware Approximate
Sat 12:18:00 AM 36.1837 135.5846 253° West  Level FlightAware Approximate
Sat 12:19:00 AM 36.1483 135.4420 253° West  Level FlightAware Approximate
Sat 12:20:00 AM 36.1127 135.2994 253° West  Level FlightAware Approximate
Sat 12:21:00 AM 36.0770 135.1570 253° West  Level FlightAware Approximate
Sat 12:22:00 AM 36.0413 135.0147 253° West  Level FlightAware Approximate
Sat 12:23:00 AM 36.0059 134.8723 253° West  Level FlightAware Approximate
Sat 12:24:00 AM 35.9703 134.7300 253° West  Level FlightAware Approximate
Sat 12:25:00 AM 35.9346 134.5878 253° West  Level FlightAware Approximate
Sat 12:26:00 AM 35.8975 134.4463 251° West  Level FlightAware Approximate
Sat 12:27:00 AM 35.8590 134.3054 251° West  Level FlightAware Approximate
Sat 12:28:00 AM 35.8204 134.1646 251° West  Level FlightAware Approximate
Sat 12:29:00 AM 35.7816 134.0240 251° West  Level FlightAware Approximate
Sat 12:30:00 AM 35.7426 133.8835 251° West  Level FlightAware Approximate
Sat 12:31:00 AM 35.7034 133.7431 251° West  Level FlightAware Approximate
Sat 12:32:00 AM 35.6641 133.6029 251° West  Level FlightAware Approximate
Sat 12:33:00 AM 35.6246 133.4628 251° West  Level FlightAware Approximate
Sat 12:34:00 AM 35.5850 133.3229 251° West  Level FlightAware Approximate
Sat 12:35:00 AM 35.5452 133.1831 251° West  Level FlightAware Approximate
Sat 12:36:00 AM 35.4956 133.0499 232° Southwest  Level FlightAware Approximate
Sat 12:37:00 AM 35.4219 132.9329 232° Southwest  Level FlightAware Approximate
Sat 12:38:00 AM 35.3480 132.8161 232° Southwest  Level FlightAware Approximate
Sat 12:39:00 AM 35.2727 132.7009 231° Southwest  Level FlightAware Approximate
Sat 12:40:00 AM 35.1963 132.5868 231° Southwest  Level FlightAware Approximate
Sat 12:41:00 AM 35.1198 132.4729 231° Southwest  Level FlightAware Approximate
Sat 12:42:00 AM 35.0432 132.3593 231° Southwest  Level FlightAware Approximate
Sat 12:43:00 AM 34.9665 132.2459 230° Southwest  Level FlightAware Approximate
Sat 12:44:00 AM 34.8896 132.1327 230° Southwest  Level FlightAware Approximate
Sat 12:45:00 AM 34.8127 132.0197 230° Southwest  Level FlightAware Approximate
Sat 12:46:00 AM 34.7357 131.9069 230° Southwest  Level FlightAware Approximate
Sat 12:47:00 AM 34.6585 131.7943 230° Southwest  Level FlightAware Approximate
Sat 12:48:00 AM 34.5814 131.6818 230° Southwest  Level FlightAware Approximate
Sat 12:49:00 AM 34.5043 131.5694 230° Southwest  Level FlightAware Approximate
Sat 12:50:00 AM 34.4272 131.4572 230° Southwest  Level FlightAware Approximate
Sat 12:51:00 AM 34.3499 131.3452 230° Southwest  Level FlightAware Approximate
Sat 12:52:00 AM 34.2725 131.2333 230° Southwest  Level FlightAware Approximate
Sat 12:53:00 AM 34.1950 131.1217 230° Southwest  Level FlightAware Approximate
Sat 12:54:00 AM 34.1174 131.0103 230° Southwest  Level FlightAware Approximate
Sat 12:55:00 AM 34.0397 130.8992 230° Southwest  Level FlightAware Approximate
Sat 12:56:00 AM 33.9620 130.7882 230° Southwest  Level FlightAware Approximate
Sat 12:57:00 AM 33.8837 130.6778 229° Southwest  Level FlightAware Approximate
Sat 12:58:00 AM 33.8038 130.5691 229° Southwest  Level FlightAware Approximate
Sat 12:59:00 AM 33.7239 130.4607 228° Southwest  Level FlightAware Approximate
Sat 01:00:00 AM 33.6457 130.3506 232° Southwest  Level FlightAware Approximate
Sat 01:01:00 AM 33.5723 130.2359 232° Southwest  Level FlightAware Approximate
Sat 01:02:00 AM 33.4987 130.1214 232° Southwest  Level FlightAware Approximate
Sat 01:03:00 AM 33.4251 130.0071 232° Southwest  Level FlightAware Approximate
Sat 01:04:00 AM 33.3518 129.8926 233° Southwest  Level FlightAware Approximate
Sat 01:05:00 AM 33.2800 129.7768 233° Southwest  Level FlightAware Approximate
Sat 01:06:00 AM 33.2081 129.6611 233° Southwest  Level FlightAware Approximate
Sat 01:07:00 AM 33.1362 129.5457 233° Southwest  Level FlightAware Approximate
Sat 01:08:00 AM 33.0641 129.4305 233° Southwest  Level FlightAware Approximate
Sat 01:09:00 AM 32.9919 129.3154 233° Southwest  Level FlightAware Approximate
Sat 01:10:00 AM 32.9196 129.2005 233° Southwest  Level FlightAware Approximate
Sat 01:11:00 AM 32.8439 129.0893 225° Southwest  Level FlightAware Approximate
Sat 01:12:00 AM 32.7637 128.9829 235° Southwest  Level FlightAware Approximate
Sat 01:13:00 AM 32.6950 128.8652 235° Southwest  Level FlightAware Approximate
Sat 01:14:00 AM 32.6503 128.7349 257° West  Level FlightAware Approximate
Sat 01:15:00 AM 32.6223 128.5957 257° West  Level FlightAware Approximate
Sat 01:16:00 AM 32.5942 128.4567 257° West  Level FlightAware Approximate
Sat 01:17:00 AM 32.5659 128.3177 256° West  Level FlightAware Approximate
Sat 01:18:00 AM 32.5374 128.1788 256° West  Level FlightAware Approximate
Sat 01:19:00 AM 32.5088 128.0400 256° West  Level FlightAware Approximate
Sat 01:20:00 AM 32.4801 127.9012 256° West  Level FlightAware Approximate
Sat 01:21:00 AM 32.4512 127.7626 256° West  Level FlightAware Approximate
Sat 01:22:00 AM 32.4221 127.6240 256° West  Level FlightAware Approximate
Sat 01:23:00 AM 32.3929 127.4856 256° West  Level FlightAware Approximate
Sat 01:24:00 AM 32.3635 127.3472 256° West  Level FlightAware Approximate
Sat 01:25:00 AM 32.3340 127.2089 256° West  Level FlightAware Approximate
Sat 01:26:00 AM 32.3044 127.0707 256° West  Level FlightAware Approximate
Sat 01:27:00 AM 32.2746 126.9326 256° West  Level FlightAware Approximate
Sat 01:28:00 AM 32.2446 126.7946 256° West  Level FlightAware Approximate
Sat 01:29:00 AM 32.2145 126.6567 255° West  Level FlightAware Approximate
Sat 01:30:00 AM 32.1841 126.5190 255° West  Level FlightAware Approximate
Sat 01:31:00 AM 32.1535 126.3813 255° West  Level FlightAware Approximate
Sat 01:32:00 AM 32.1227 126.2437 255° West  Level FlightAware Approximate
Sat 01:33:00 AM 32.0919 126.1062 255° West  Level FlightAware Approximate
Sat 01:34:00 AM 32.0608 125.9688 255° West  Level FlightAware Approximate
Sat 01:35:00 AM 32.0297 125.8315 255° West  Level FlightAware Approximate
Sat 01:36:00 AM 31.9983 125.6943 255° West  Level FlightAware Approximate
Sat 01:37:00 AM 31.9669 125.5572 255° West  Level FlightAware Approximate
Sat 01:38:00 AM 31.9352 125.4202 255° West  Level FlightAware Approximate
Sat 01:39:00 AM 31.9035 125.2832 255° West  Level FlightAware Approximate
Sat 01:40:00 AM 31.8716 125.1464 255° West  Level FlightAware Approximate
Sat 01:41:00 AM 31.8395 125.0096 255° West  Level FlightAware Approximate
Sat 01:42:00 AM 31.8100 124.8722 256° West  Level FlightAware Approximate
Sat 01:43:00 AM 31.7809 124.7346 256° West  Level FlightAware Approximate
Sat 01:44:00 AM 31.7517 124.5971 256° West  Level FlightAware Approximate
Sat 01:45:00 AM 31.7223 124.4597 256° West  Level FlightAware Approximate
Sat 01:46:00 AM 31.6870 124.3244 252° West  Level FlightAware Approximate
Sat 01:47:00 AM 31.6506 124.1894 253° West  Level FlightAware Approximate
Sat 01:48:00 AM 31.6145 124.0544 253° West  Level FlightAware Approximate
Sat 01:49:00 AM 31.5854 123.9177 255° West  Level FlightAware Approximate
Sat 01:50:00 AM 31.5561 123.7806 257° West  Level FlightAware Approximate
Sat 01:51:00 AM 31.5256 123.6439 255° West  Level FlightAware Approximate
Sat 01:52:00 AM 31.5000 123.5065 270° West  Level FlightAware Approximate
Sat 01:53:00 AM 31.4677 123.3707 254° West  Level FlightAware Approximate
Sat 01:54:00 AM 31.4400 123.2332 257° West  Level FlightAware Approximate
Sat 01:55:00 AM 31.4125 123.0957 257° West  Level FlightAware Approximate
Sat 01:56:00 AM 31.3860 122.9581 258° West  Level FlightAware Approximate
Sat 01:57:00 AM 31.3601 122.8202 258° West  Level FlightAware Approximate
Sat 01:58:00 AM 31.3332 122.6827 258° West  Level FlightAware Approximate
Sat 01:59:00 AM 31.3082 122.5447 258° West  Level FlightAware Approximate
Sat 02:00:00 AM 31.2758 122.4090 253° West  Level FlightAware Approximate
Sat 02:01:00 AM 31.2399 122.2745 253° West  Level FlightAware Approximate
Sat 02:02:00 AM 31.2177 122.1374 254° West  Level FlightAware Approximate
Sat 02:03:00 AM 31.1833 122.0048 270° West  Level FlightAware Approximate
Sat 02:04:00 AM 31.1483 121.8728 259° West  Level FlightAware Approximate
Sat 02:05:00 AM 31.1428 121.7924 259° West  Level Estimated
Sat 02:06:00 AM 31.1428 121.7924 259° West  Level Estimated
Sat 02:07:00 AM 31.1428 121.7924 259° West  Level Estimated
Sat 02:08:00 AM 31.1428 121.7924 259° West  Level Estimated
Sat 02:09:00 AM 31.1428 121.7924 259° West  Level Estimated
Sat 02:10:00 AM 31.1428 121.7924 259° West  Level Estimated
Sat 02:11:00 AM 31.1428 121.7924 259° West  Level Estimated
Sat 02:12:00 AM 31.1428 121.7924 259° West  Level Estimated
Sat 02:13:00 AM 31.1428 121.7924 259° West  Level Estimated
Sat 02:14:00 AM 31.1428 121.7924 259° West  Level Estimated
Sat 02:15:00 AM 31.1428 121.7924 259° West  Level Estimated
Sat 02:16:00 AM 31.1428 121.7924 259° West  Level Estimated
Sat 02:17:00 AM 31.1428 121.7924 259° West  Level Estimated
Sat 02:18:00 AM 31.1428 121.7924 259° West  Level Estimated
Sat 02:19:00 AM 31.1428 121.7924 259° West  Level Estimated
Sat 02:20:00 AM 31.1428 121.7924 259° West  Level Estimated
Sat 02:21:00 AM 31.1428 121.7924 259° West  Level Estimated
Sat 02:22:00 AM 31.1428 121.7924 259° West  Level Estimated
Sat 02:23:00 AM 31.1428 121.7924 259° West  Level Estimated

Login

Don't have an account? Register now (free) for customized features, flight alerts, and more!